sensor_id;sensor_type;location;lat;lon;timestamp;P1;durP1;ratioP1;P2;durP2;ratioP2
55136;SDS011;41032;47.818;-3.732;2022-12-07T13:52:21;5.60;;;2.50;;
55136;SDS011;41032;47.818;-3.732;2022-12-07T13:54:55;6.45;;;2.85;;
55136;SDS011;41032;47.818;-3.732;2022-12-07T13:57:24;7.05;;;3.80;;
55136;SDS011;41032;47.818;-3.732;2022-12-07T13:59:52;11.95;;;3.35;;
55136;SDS011;41032;47.818;-3.732;2022-12-07T14:02:30;5.85;;;2.55;;
55136;SDS011;41032;47.818;-3.732;2022-12-07T14:05:42;6.85;;;2.08;;
55136;SDS011;41032;47.818;-3.732;2022-12-07T14:07:53;3.65;;;2.03;;
55136;SDS011;41032;47.818;-3.732;2022-12-07T14:12:56;5.25;;;3.00;;
55136;SDS011;41032;47.818;-3.732;2022-12-07T14:15:27;5.32;;;3.35;;
55136;SDS011;41032;47.818;-3.732;2022-12-07T14:17:56;3.55;;;2.47;;
55136;SDS011;41032;47.818;-3.732;2022-12-07T14:20:29;3.33;;;2.42;;
55136;SDS011;41032;47.818;-3.732;2022-12-07T14:22:58;4.55;;;2.97;;
55136;SDS011;41032;47.818;-3.732;2022-12-07T14:25:45;3.00;;;2.30;;
55136;SDS011;41032;47.818;-3.732;2022-12-07T14:28:34;4.25;;;2.58;;
55136;SDS011;41032;47.818;-3.732;2022-12-07T14:31:02;4.88;;;2.28;;
55136;SDS011;41032;47.818;-3.732;2022-12-07T14:33:31;3.92;;;2.30;;
55136;SDS011;41032;47.818;-3.732;2022-12-07T14:35:59;11.32;;;1.92;;
55136;SDS011;41032;47.818;-3.732;2022-12-07T14:38:27;3.33;;;2.00;;
55136;SDS011;41032;47.818;-3.732;2022-12-07T14:40:55;6.45;;;2.35;;
55136;SDS011;41032;47.818;-3.732;2022-12-07T14:43:43;8.55;;;2.05;;
55136;SDS011;41032;47.818;-3.732;2022-12-07T14:46:12;3.53;;;1.98;;
55136;SDS011;41032;47.818;-3.732;2022-12-07T14:48:40;4.85;;;1.60;;
55136;SDS011;41032;47.818;-3.732;2022-12-07T14:51:10;3.85;;;1.85;;
55136;SDS011;41032;47.818;-3.732;2022-12-07T14:53:41;4.10;;;1.88;;
55136;SDS011;41032;47.818;-3.732;2022-12-07T14:56:11;5.45;;;1.65;;
55136;SDS011;41032;47.818;-3.732;2022-12-07T14:58:40;4.68;;;1.70;;
55136;SDS011;41032;47.818;-3.732;2022-12-07T15:01:08;2.10;;;1.33;;
55136;SDS011;41032;47.818;-3.732;2022-12-07T15:03:37;3.92;;;1.63;;
55136;SDS011;41032;47.818;-3.732;2022-12-07T15:06:06;3.20;;;1.55;;
55136;SDS011;41032;47.818;-3.732;2022-12-07T15:08:34;2.88;;;1.65;;
55136;SDS011;41032;47.818;-3.732;2022-12-07T15:11:02;4.28;;;1.50;;
55136;SDS011;41032;47.818;-3.732;2022-12-07T15:13:31;3.70;;;1.30;;
55136;SDS011;41032;47.818;-3.732;2022-12-07T15:16:19;3.05;;;1.40;;
55136;SDS011;41032;47.818;-3.732;2022-12-07T15:18:47;2.50;;;1.20;;
55136;SDS011;41032;47.818;-3.732;2022-12-07T15:21:16;3.97;;;1.40;;
55136;SDS011;41032;47.818;-3.732;2022-12-07T15:23:45;1.73;;;1.20;;
55136;SDS011;41032;47.818;-3.732;2022-12-07T15:26:14;1.52;;;1.10;;
55136;SDS011;41032;47.818;-3.732;2022-12-07T15:28:43;18.33;;;11.25;;
55136;SDS011;41032;47.818;-3.732;2022-12-07T15:31:12;27.70;;;18.58;;
55136;SDS011;41032;47.818;-3.732;2022-12-07T15:33:42;25.33;;;17.58;;
55136;SDS011;41032;47.818;-3.732;2022-12-07T15:36:18;37.58;;;17.60;;
55136;SDS011;41032;47.818;-3.732;2022-12-07T15:38:50;24.05;;;15.25;;
55136;SDS011;41032;47.818;-3.732;2022-12-07T15:41:19;22.60;;;14.95;;
55136;SDS011;41032;47.818;-3.732;2022-12-07T15:43:48;22.38;;;14.32;;
55136;SDS011;41032;47.818;-3.732;2022-12-07T15:46:37;19.88;;;13.18;;
55136;SDS011;41032;47.818;-3.732;2022-12-07T15:49:07;20.63;;;12.80;;
55136;SDS011;41032;47.818;-3.732;2022-12-07T15:51:38;20.48;;;13.07;;
55136;SDS011;41032;47.818;-3.732;2022-12-07T15:54:06;19.00;;;11.88;;
55136;SDS011;41032;47.818;-3.732;2022-12-07T15:56:38;20.38;;;11.35;;
55136;SDS011;41032;47.818;-3.732;2022-12-07T15:59:06;21.38;;;10.38;;
55136;SDS011;41032;47.818;-3.732;2022-12-07T16:01:33;17.77;;;10.05;;
55136;SDS011;41032;47.818;-3.732;2022-12-07T16:04:01;15.07;;;9.88;;
55136;SDS011;41032;47.818;-3.732;2022-12-07T16:06:29;13.68;;;8.93;;
55136;SDS011;41032;47.818;-3.732;2022-12-07T16:08:57;15.02;;;9.20;;
55136;SDS011;41032;47.818;-3.732;2022-12-07T16:11:26;13.32;;;8.82;;
55136;SDS011;41032;47.818;-3.732;2022-12-07T16:13:54;12.07;;;8.35;;
55136;SDS011;41032;47.818;-3.732;2022-12-07T16:16:23;16.02;;;10.20;;
55136;SDS011;41032;47.818;-3.732;2022-12-07T16:18:51;15.85;;;8.82;;
55136;SDS011;41032;47.818;-3.732;2022-12-07T16:21:20;12.05;;;8.57;;
55136;SDS011;41032;47.818;-3.732;2022-12-07T16:23:47;15.18;;;8.75;;
55136;SDS011;41032;47.818;-3.732;2022-12-07T16:26:17;12.73;;;8.38;;
55136;SDS011;41032;47.818;-3.732;2022-12-07T16:28:48;14.25;;;7.90;;
55136;SDS011;41032;47.818;-3.732;2022-12-07T16:31:19;10.63;;;6.90;;
55136;SDS011;41032;47.818;-3.732;2022-12-07T16:33:48;15.02;;;7.82;;
55136;SDS011;41032;47.818;-3.732;2022-12-07T16:36:17;9.98;;;6.60;;
55136;SDS011;41032;47.818;-3.732;2022-12-07T16:38:47;11.35;;;6.90;;
55136;SDS011;41032;47.818;-3.732;2022-12-07T16:41:16;13.63;;;8.23;;
55136;SDS011;41032;47.818;-3.732;2022-12-07T16:43:44;11.80;;;7.60;;
55136;SDS011;41032;47.818;-3.732;2022-12-07T16:46:13;14.32;;;8.88;;
55136;SDS011;41032;47.818;-3.732;2022-12-07T16:48:41;10.60;;;7.25;;
55136;SDS011;41032;47.818;-3.732;2022-12-07T16:51:09;11.18;;;7.68;;
55136;SDS011;41032;47.818;-3.732;2022-12-07T16:53:38;12.27;;;8.18;;
55136;SDS011;41032;47.818;-3.732;2022-12-07T16:56:11;11.35;;;7.00;;
55136;SDS011;41032;47.818;-3.732;2022-12-07T16:58:40;9.10;;;6.00;;
55136;SDS011;41032;47.818;-3.732;2022-12-07T17:01:14;9.57;;;6.10;;
55136;SDS011;41032;47.818;-3.732;2022-12-07T17:03:43;9.43;;;6.13;;
55136;SDS011;41032;47.818;-3.732;2022-12-07T17:06:12;7.97;;;5.50;;
55136;SDS011;41032;47.818;-3.732;2022-12-07T17:08:44;8.13;;;5.68;;
55136;SDS011;41032;47.818;-3.732;2022-12-07T17:11:12;8.60;;;4.90;;
55136;SDS011;41032;47.818;-3.732;2022-12-07T17:13:41;9.30;;;5.00;;
55136;SDS011;41032;47.818;-3.732;2022-12-07T17:16:28;9.85;;;5.32;;
55136;SDS011;41032;47.818;-3.732;2022-12-07T17:18:56;5.80;;;4.00;;
55136;SDS011;41032;47.818;-3.732;2022-12-07T17:21:24;7.03;;;4.00;;
55136;SDS011;41032;47.818;-3.732;2022-12-07T17:23:51;6.90;;;4.32;;
55136;SDS011;41032;47.818;-3.732;2022-12-07T17:26:22;7.05;;;4.00;;
55136;SDS011;41032;47.818;-3.732;2022-12-07T17:28:51;5.60;;;3.88;;
55136;SDS011;41032;47.818;-3.732;2022-12-07T17:31:19;11.35;;;3.80;;
55136;SDS011;41032;47.818;-3.732;2022-12-07T17:33:48;5.55;;;3.72;;
55136;SDS011;41032;47.818;-3.732;2022-12-07T17:36:18;8.93;;;3.83;;
55136;SDS011;41032;47.818;-3.732;2022-12-07T17:38:47;5.05;;;3.47;;
55136;SDS011;41032;47.818;-3.732;2022-12-07T17:41:16;5.68;;;3.65;;
55136;SDS011;41032;47.818;-3.732;2022-12-07T17:44:05;4.82;;;3.33;;
55136;SDS011;41032;47.818;-3.732;2022-12-07T17:46:35;4.55;;;2.80;;
55136;SDS011;41032;47.818;-3.732;2022-12-07T17:49:03;4.57;;;3.00;;
55136;SDS011;41032;47.818;-3.732;2022-12-07T17:51:32;4.63;;;2.75;;
55136;SDS011;41032;47.818;-3.732;2022-12-07T17:54:19;4.47;;;2.97;;
55136;SDS011;41032;47.818;-3.732;2022-12-07T17:56:47;3.78;;;2.80;;
55136;SDS011;41032;47.818;-3.732;2022-12-07T17:59:15;5.53;;;2.92;;
55136;SDS011;41032;47.818;-3.732;2022-12-07T18:01:43;5.07;;;3.10;;
55136;SDS011;41032;47.818;-3.732;2022-12-07T18:04:11;4.25;;;2.70;;
55136;SDS011;41032;47.818;-3.732;2022-12-07T18:06:39;4.50;;;2.55;;
55136;SDS011;41032;47.818;-3.732;2022-12-07T18:09:08;7.03;;;2.42;;
55136;SDS011;41032;47.818;-3.732;2022-12-07T18:11:37;3.15;;;2.33;;
55136;SDS011;41032;47.818;-3.732;2022-12-07T18:14:05;3.42;;;2.20;;
55136;SDS011;41032;47.818;-3.732;2022-12-07T18:16:33;5.75;;;2.38;;
55136;SDS011;41032;47.818;-3.732;2022-12-07T18:19:01;3.58;;;1.95;;
55136;SDS011;41032;47.818;-3.732;2022-12-07T18:21:30;3.35;;;2.05;;
55136;SDS011;41032;47.818;-3.732;2022-12-07T18:23:59;3.30;;;2.10;;
55136;SDS011;41032;47.818;-3.732;2022-12-07T18:26:30;5.82;;;2.25;;
55136;SDS011;41032;47.818;-3.732;2022-12-07T18:29:00;4.30;;;2.05;;
55136;SDS011;41032;47.818;-3.732;2022-12-07T18:31:30;5.25;;;2.20;;
55136;SDS011;41032;47.818;-3.732;2022-12-07T18:34:00;4.38;;;2.00;;
55136;SDS011;41032;47.818;-3.732;2022-12-07T18:36:29;7.03;;;1.75;;
55136;SDS011;41032;47.818;-3.732;2022-12-07T18:38:57;3.00;;;2.03;;
55136;SDS011;41032;47.818;-3.732;2022-12-07T18:41:25;4.10;;;2.25;;
55136;SDS011;41032;47.818;-3.732;2022-12-07T18:43:53;11.98;;;3.90;;
55136;SDS011;41032;47.818;-3.732;2022-12-07T18:46:20;20.05;;;7.55;;
55136;SDS011;41032;47.818;-3.732;2022-12-07T18:48:48;74.18;;;28.30;;
55136;SDS011;41032;47.818;-3.732;2022-12-07T18:51:17;107.03;;;40.58;;
55136;SDS011;41032;47.818;-3.732;2022-12-07T18:53:46;137.13;;;60.40;;
55136;SDS011;41032;47.818;-3.732;2022-12-07T18:58:55;230.98;;;105.60;;
55136;SDS011;41032;47.818;-3.732;2022-12-07T19:01:44;243.43;;;109.25;;
55136;SDS011;41032;47.818;-3.732;2022-12-07T19:04:13;260.63;;;117.53;;
55136;SDS011;41032;47.818;-3.732;2022-12-07T19:06:41;266.92;;;121.60;;
55136;SDS011;41032;47.818;-3.732;2022-12-07T19:09:09;255.40;;;122.25;;
55136;SDS011;41032;47.818;-3.732;2022-12-07T19:11:38;248.25;;;120.22;;
55136;SDS011;41032;47.818;-3.732;2022-12-07T19:14:18;251.55;;;120.88;;
55136;SDS011;41032;47.818;-3.732;2022-12-07T19:16:57;253.80;;;120.78;;
55136;SDS011;41032;47.818;-3.732;2022-12-07T19:19:31;230.20;;;115.20;;
55136;SDS011;41032;47.818;-3.732;2022-12-07T19:22:01;247.55;;;115.47;;
55136;SDS011;41032;47.818;-3.732;2022-12-07T19:24:29;220.82;;;112.15;;
55136;SDS011;41032;47.818;-3.732;2022-12-07T19:26:57;218.70;;;107.93;;
55136;SDS011;41032;47.818;-3.732;2022-12-07T19:29:26;214.60;;;100.18;;
55136;SDS011;41032;47.818;-3.732;2022-12-07T19:31:56;191.70;;;97.28;;
55136;SDS011;41032;47.818;-3.732;2022-12-07T19:34:25;191.50;;;94.80;;
55136;SDS011;41032;47.818;-3.732;2022-12-07T19:36:52;182.32;;;90.32;;
55136;SDS011;41032;47.818;-3.732;2022-12-07T19:39:19;180.13;;;86.20;;
55136;SDS011;41032;47.818;-3.732;2022-12-07T19:41:47;158.50;;;79.13;;
55136;SDS011;41032;47.818;-3.732;2022-12-07T19:44:16;153.27;;;79.15;;
55136;SDS011;41032;47.818;-3.732;2022-12-07T19:46:46;148.35;;;74.72;;
55136;SDS011;41032;47.818;-3.732;2022-12-07T19:49:16;135.52;;;70.68;;
55136;SDS011;41032;47.818;-3.732;2022-12-07T19:51:46;132.98;;;64.07;;
55136;SDS011;41032;47.818;-3.732;2022-12-07T19:54:16;127.07;;;62.50;;
55136;SDS011;41032;47.818;-3.732;2022-12-07T19:56:46;115.05;;;55.90;;
55136;SDS011;41032;47.818;-3.732;2022-12-07T19:59:15;121.35;;;57.78;;
55136;SDS011;41032;47.818;-3.732;2022-12-07T20:01:44;107.03;;;52.92;;
55136;SDS011;41032;47.818;-3.732;2022-12-07T20:04:12;107.45;;;50.10;;
55136;SDS011;41032;47.818;-3.732;2022-12-07T20:06:41;99.25;;;47.95;;
55136;SDS011;41032;47.818;-3.732;2022-12-07T20:09:10;95.75;;;45.67;;
55136;SDS011;41032;47.818;-3.732;2022-12-07T20:11:38;82.95;;;40.83;;
55136;SDS011;41032;47.818;-3.732;2022-12-07T20:14:24;77.15;;;40.08;;
55136;SDS011;41032;47.818;-3.732;2022-12-07T20:16:52;73.78;;;36.97;;
55136;SDS011;41032;47.818;-3.732;2022-12-07T20:19:19;72.60;;;35.00;;
55136;SDS011;41032;47.818;-3.732;2022-12-07T20:21:48;64.30;;;32.70;;
55136;SDS011;41032;47.818;-3.732;2022-12-07T20:24:17;73.55;;;33.00;;
55136;SDS011;41032;47.818;-3.732;2022-12-07T20:26:47;66.03;;;30.40;;
55136;SDS011;41032;47.818;-3.732;2022-12-07T20:29:17;54.10;;;27.88;;
55136;SDS011;41032;47.818;-3.732;2022-12-07T20:31:46;60.25;;;30.10;;
55136;SDS011;41032;47.818;-3.732;2022-12-07T20:34:14;54.72;;;27.52;;
55136;SDS011;41032;47.818;-3.732;2022-12-07T20:36:41;52.13;;;26.92;;
55136;SDS011;41032;47.818;-3.732;2022-12-07T20:39:10;51.50;;;25.05;;
55136;SDS011;41032;47.818;-3.732;2022-12-07T20:41:38;48.88;;;22.90;;
55136;SDS011;41032;47.818;-3.732;2022-12-07T20:44:25;38.58;;;19.92;;
